sensor_id;sensor_type;location;lat;lon;timestamp;P1;durP1;ratioP1;P2;durP2;ratioP2
74674;SDS011;63200;48.810;12.352;2023-02-28T00:02:14;6.87;;;4.17;;
74674;SDS011;63200;48.810;12.352;2023-02-28T00:04:39;5.17;;;3.80;;
74674;SDS011;63200;48.810;12.352;2023-02-28T00:07:04;7.67;;;4.00;;
74674;SDS011;63200;48.810;12.352;2023-02-28T00:09:30;3.90;;;3.60;;
74674;SDS011;63200;48.810;12.352;2023-02-28T00:11:55;6.97;;;4.07;;
74674;SDS011;63200;48.810;12.352;2023-02-28T00:14:20;6.40;;;4.27;;
74674;SDS011;63200;48.810;12.352;2023-02-28T00:16:45;6.87;;;4.10;;
74674;SDS011;63200;48.810;12.352;2023-02-28T00:19:11;5.50;;;4.00;;
74674;SDS011;63200;48.810;12.352;2023-02-28T00:21:38;7.13;;;4.27;;
74674;SDS011;63200;48.810;12.352;2023-02-28T00:24:05;8.83;;;4.47;;
74674;SDS011;63200;48.810;12.352;2023-02-28T00:26:31;7.17;;;4.03;;
74674;SDS011;63200;48.810;12.352;2023-02-28T00:28:56;5.80;;;4.40;;
74674;SDS011;63200;48.810;12.352;2023-02-28T00:31:22;11.87;;;5.77;;
74674;SDS011;63200;48.810;12.352;2023-02-28T00:33:47;24.03;;;7.97;;
74674;SDS011;63200;48.810;12.352;2023-02-28T00:36:13;28.60;;;8.23;;
74674;SDS011;63200;48.810;12.352;2023-02-28T00:38:38;22.87;;;8.30;;
74674;SDS011;63200;48.810;12.352;2023-02-28T00:41:06;20.67;;;7.17;;
74674;SDS011;63200;48.810;12.352;2023-02-28T00:43:33;15.53;;;5.60;;
74674;SDS011;63200;48.810;12.352;2023-02-28T00:45:59;15.90;;;6.77;;
74674;SDS011;63200;48.810;12.352;2023-02-28T00:48:25;13.17;;;5.77;;
74674;SDS011;63200;48.810;12.352;2023-02-28T00:50:50;7.30;;;4.17;;
74674;SDS011;63200;48.810;12.352;2023-02-28T00:53:16;12.03;;;4.80;;
74674;SDS011;63200;48.810;12.352;2023-02-28T00:55:41;6.97;;;4.80;;
74674;SDS011;63200;48.810;12.352;2023-02-28T00:58:06;11.57;;;4.40;;
74674;SDS011;63200;48.810;12.352;2023-02-28T01:00:32;11.00;;;4.40;;
74674;SDS011;63200;48.810;12.352;2023-02-28T01:02:57;14.43;;;5.03;;
74674;SDS011;63200;48.810;12.352;2023-02-28T01:05:22;6.97;;;4.20;;
74674;SDS011;63200;48.810;12.352;2023-02-28T01:07:48;9.00;;;4.43;;
74674;SDS011;63200;48.810;12.352;2023-02-28T01:10:13;10.60;;;5.70;;
74674;SDS011;63200;48.810;12.352;2023-02-28T01:12:38;13.30;;;5.63;;
74674;SDS011;63200;48.810;12.352;2023-02-28T01:15:04;12.40;;;5.73;;
74674;SDS011;63200;48.810;12.352;2023-02-28T01:17:29;27.13;;;8.63;;
74674;SDS011;63200;48.810;12.352;2023-02-28T01:19:55;29.37;;;9.87;;
74674;SDS011;63200;48.810;12.352;2023-02-28T01:22:20;24.27;;;8.00;;
74674;SDS011;63200;48.810;12.352;2023-02-28T01:24:46;13.53;;;5.97;;
74674;SDS011;63200;48.810;12.352;2023-02-28T01:27:11;11.57;;;5.27;;
74674;SDS011;63200;48.810;12.352;2023-02-28T01:29:36;9.33;;;4.60;;
74674;SDS011;63200;48.810;12.352;2023-02-28T01:32:02;7.53;;;4.40;;
74674;SDS011;63200;48.810;12.352;2023-02-28T01:34:27;9.00;;;4.17;;
74674;SDS011;63200;48.810;12.352;2023-02-28T01:36:52;7.00;;;4.30;;
74674;SDS011;63200;48.810;12.352;2023-02-28T01:39:18;8.17;;;4.17;;
74674;SDS011;63200;48.810;12.352;2023-02-28T01:41:43;7.83;;;4.40;;
74674;SDS011;63200;48.810;12.352;2023-02-28T01:47:11;5.30;;;3.80;;
74674;SDS011;63200;48.810;12.352;2023-02-28T01:49:37;8.27;;;4.30;;
74674;SDS011;63200;48.810;12.352;2023-02-28T01:52:02;6.47;;;4.17;;
74674;SDS011;63200;48.810;12.352;2023-02-28T01:54:31;9.33;;;4.63;;
74674;SDS011;63200;48.810;12.352;2023-02-28T01:57:21;9.37;;;4.40;;
74674;SDS011;63200;48.810;12.352;2023-02-28T01:59:50;7.00;;;4.70;;
74674;SDS011;63200;48.810;12.352;2023-02-28T02:02:20;11.27;;;4.60;;
74674;SDS011;63200;48.810;12.352;2023-02-28T02:07:32;8.57;;;5.23;;
74674;SDS011;63200;48.810;12.352;2023-02-28T02:10:22;9.23;;;5.07;;
74674;SDS011;63200;48.810;12.352;2023-02-28T02:13:08;5.50;;;4.50;;
74674;SDS011;63200;48.810;12.352;2023-02-28T02:15:55;8.87;;;5.07;;
74674;SDS011;63200;48.810;12.352;2023-02-28T02:18:35;7.37;;;4.80;;
74674;SDS011;63200;48.810;12.352;2023-02-28T02:35:13;8.30;;;4.50;;
74674;SDS011;63200;48.810;12.352;2023-02-28T02:37:58;9.00;;;4.73;;
74674;SDS011;63200;48.810;12.352;2023-02-28T02:43:22;4.80;;;4.27;;
74674;SDS011;63200;48.810;12.352;2023-02-28T02:45:55;6.50;;;4.30;;
74674;SDS011;63200;48.810;12.352;2023-02-28T02:48:25;5.60;;;4.47;;
74674;SDS011;63200;48.810;12.352;2023-02-28T02:50:54;9.60;;;4.77;;
74674;SDS011;63200;48.810;12.352;2023-02-28T02:53:30;5.80;;;3.93;;
74674;SDS011;63200;48.810;12.352;2023-02-28T02:56:00;7.53;;;4.50;;
74674;SDS011;63200;48.810;12.352;2023-02-28T02:58:31;8.77;;;4.70;;
74674;SDS011;63200;48.810;12.352;2023-02-28T03:01:00;7.17;;;4.43;;
74674;SDS011;63200;48.810;12.352;2023-02-28T03:03:28;7.30;;;4.40;;
74674;SDS011;63200;48.810;12.352;2023-02-28T03:05:57;10.60;;;4.77;;
74674;SDS011;63200;48.810;12.352;2023-02-28T03:08:24;7.13;;;4.33;;
74674;SDS011;63200;48.810;12.352;2023-02-28T03:10:51;9.27;;;4.83;;
74674;SDS011;63200;48.810;12.352;2023-02-28T03:16:35;6.17;;;4.60;;
74674;SDS011;63200;48.810;12.352;2023-02-28T03:24:34;10.23;;;5.27;;
74674;SDS011;63200;48.810;12.352;2023-02-28T03:27:23;6.60;;;4.50;;
74674;SDS011;63200;48.810;12.352;2023-02-28T03:30:04;6.27;;;4.70;;
74674;SDS011;63200;48.810;12.352;2023-02-28T03:32:36;9.13;;;5.30;;
74674;SDS011;63200;48.810;12.352;2023-02-28T03:35:14;10.40;;;4.67;;
74674;SDS011;63200;48.810;12.352;2023-02-28T03:37:47;7.30;;;4.57;;
74674;SDS011;63200;48.810;12.352;2023-02-28T03:40:16;10.27;;;5.03;;
74674;SDS011;63200;48.810;12.352;2023-02-28T03:42:47;9.07;;;5.20;;
74674;SDS011;63200;48.810;12.352;2023-02-28T03:45:17;7.17;;;4.97;;
74674;SDS011;63200;48.810;12.352;2023-02-28T03:47:52;9.27;;;5.43;;
74674;SDS011;63200;48.810;12.352;2023-02-28T03:50:20;10.03;;;5.03;;
74674;SDS011;63200;48.810;12.352;2023-02-28T03:52:50;12.67;;;5.50;;
74674;SDS011;63200;48.810;12.352;2023-02-28T03:55:20;8.97;;;5.10;;
74674;SDS011;63200;48.810;12.352;2023-02-28T03:58:00;11.53;;;5.10;;
74674;SDS011;63200;48.810;12.352;2023-02-28T04:00:30;10.27;;;5.87;;
74674;SDS011;63200;48.810;12.352;2023-02-28T04:02:59;7.83;;;5.40;;
74674;SDS011;63200;48.810;12.352;2023-02-28T04:05:24;7.47;;;4.87;;
74674;SDS011;63200;48.810;12.352;2023-02-28T04:07:51;9.03;;;5.83;;
74674;SDS011;63200;48.810;12.352;2023-02-28T04:10:17;8.10;;;4.87;;
74674;SDS011;63200;48.810;12.352;2023-02-28T04:12:43;7.10;;;5.13;;
74674;SDS011;63200;48.810;12.352;2023-02-28T04:15:08;9.07;;;4.93;;
74674;SDS011;63200;48.810;12.352;2023-02-28T04:17:35;10.83;;;5.60;;
74674;SDS011;63200;48.810;12.352;2023-02-28T04:20:00;10.07;;;6.07;;
74674;SDS011;63200;48.810;12.352;2023-02-28T04:22:25;8.80;;;5.33;;
74674;SDS011;63200;48.810;12.352;2023-02-28T04:24:51;8.67;;;4.90;;
74674;SDS011;63200;48.810;12.352;2023-02-28T04:27:18;12.97;;;5.57;;
74674;SDS011;63200;48.810;12.352;2023-02-28T04:29:44;7.83;;;5.27;;
74674;SDS011;63200;48.810;12.352;2023-02-28T04:32:09;10.27;;;5.33;;
74674;SDS011;63200;48.810;12.352;2023-02-28T04:34:35;10.60;;;5.43;;
74674;SDS011;63200;48.810;12.352;2023-02-28T04:37:01;10.93;;;5.87;;
74674;SDS011;63200;48.810;12.352;2023-02-28T04:39:27;10.73;;;5.90;;
74674;SDS011;63200;48.810;12.352;2023-02-28T04:41:53;9.43;;;6.13;;
74674;SDS011;63200;48.810;12.352;2023-02-28T04:44:18;10.47;;;5.90;;
74674;SDS011;63200;48.810;12.352;2023-02-28T04:46:45;10.40;;;5.80;;
74674;SDS011;63200;48.810;12.352;2023-02-28T04:49:13;9.53;;;6.03;;
74674;SDS011;63200;48.810;12.352;2023-02-28T04:51:38;10.53;;;6.10;;
74674;SDS011;63200;48.810;12.352;2023-02-28T04:54:04;11.47;;;6.40;;
74674;SDS011;63200;48.810;12.352;2023-02-28T04:56:29;14.63;;;7.00;;
74674;SDS011;63200;48.810;12.352;2023-02-28T04:58:55;11.37;;;6.47;;
74674;SDS011;63200;48.810;12.352;2023-02-28T05:01:30;13.93;;;7.63;;
74674;SDS011;63200;48.810;12.352;2023-02-28T05:03:58;16.33;;;7.13;;
74674;SDS011;63200;48.810;12.352;2023-02-28T05:06:27;16.10;;;7.43;;
74674;SDS011;63200;48.810;12.352;2023-02-28T05:08:54;17.60;;;7.83;;
74674;SDS011;63200;48.810;12.352;2023-02-28T05:11:26;21.63;;;8.80;;
74674;SDS011;63200;48.810;12.352;2023-02-28T05:14:00;18.07;;;8.73;;
74674;SDS011;63200;48.810;12.352;2023-02-28T05:16:26;15.73;;;8.27;;
74674;SDS011;63200;48.810;12.352;2023-02-28T05:18:52;19.43;;;8.07;;
74674;SDS011;63200;48.810;12.352;2023-02-28T05:23:52;20.23;;;7.80;;
74674;SDS011;63200;48.810;12.352;2023-02-28T05:26:19;14.90;;;7.27;;
74674;SDS011;63200;48.810;12.352;2023-02-28T05:28:44;12.93;;;6.93;;
74674;SDS011;63200;48.810;12.352;2023-02-28T05:31:10;19.53;;;8.23;;
74674;SDS011;63200;48.810;12.352;2023-02-28T05:33:35;16.97;;;7.43;;
74674;SDS011;63200;48.810;12.352;2023-02-28T05:36:01;13.20;;;6.83;;
74674;SDS011;63200;48.810;12.352;2023-02-28T05:38:26;13.00;;;6.43;;
74674;SDS011;63200;48.810;12.352;2023-02-28T05:40:51;12.07;;;7.10;;
74674;SDS011;63200;48.810;12.352;2023-02-28T05:43:18;13.97;;;7.20;;
74674;SDS011;63200;48.810;12.352;2023-02-28T05:45:43;14.80;;;6.30;;
74674;SDS011;63200;48.810;12.352;2023-02-28T05:48:09;12.73;;;6.40;;
74674;SDS011;63200;48.810;12.352;2023-02-28T05:50:34;13.33;;;6.57;;
74674;SDS011;63200;48.810;12.352;2023-02-28T05:52:59;11.90;;;6.87;;
74674;SDS011;63200;48.810;12.352;2023-02-28T05:55:25;16.97;;;6.50;;
74674;SDS011;63200;48.810;12.352;2023-02-28T05:57:50;19.03;;;6.27;;
74674;SDS011;63200;48.810;12.352;2023-02-28T06:00:15;11.47;;;5.90;;
74674;SDS011;63200;48.810;12.352;2023-02-28T06:02:42;14.50;;;6.97;;
74674;SDS011;63200;48.810;12.352;2023-02-28T06:05:15;21.27;;;7.33;;
74674;SDS011;63200;48.810;12.352;2023-02-28T06:07:42;12.83;;;6.73;;
74674;SDS011;63200;48.810;12.352;2023-02-28T06:10:08;12.67;;;7.13;;
74674;SDS011;63200;48.810;12.352;2023-02-28T06:12:34;11.17;;;6.73;;
74674;SDS011;63200;48.810;12.352;2023-02-28T06:15:00;11.47;;;6.83;;
74674;SDS011;63200;48.810;12.352;2023-02-28T06:17:25;17.00;;;7.63;;
74674;SDS011;63200;48.810;12.352;2023-02-28T06:19:51;12.13;;;6.60;;
74674;SDS011;63200;48.810;12.352;2023-02-28T06:22:16;12.17;;;6.80;;
74674;SDS011;63200;48.810;12.352;2023-02-28T06:24:41;11.73;;;6.93;;
74674;SDS011;63200;48.810;12.352;2023-02-28T06:27:06;17.17;;;8.97;;
74674;SDS011;63200;48.810;12.352;2023-02-28T06:29:32;21.03;;;10.10;;
74674;SDS011;63200;48.810;12.352;2023-02-28T06:31:59;17.07;;;8.87;;
74674;SDS011;63200;48.810;12.352;2023-02-28T06:34:24;16.67;;;8.87;;
74674;SDS011;63200;48.810;12.352;2023-02-28T06:36:50;19.73;;;9.47;;
74674;SDS011;63200;48.810;12.352;2023-02-28T06:39:16;19.70;;;8.27;;
74674;SDS011;63200;48.810;12.352;2023-02-28T06:41:42;15.77;;;8.03;;
74674;SDS011;63200;48.810;12.352;2023-02-28T06:44:16;18.23;;;8.63;;
74674;SDS011;63200;48.810;12.352;2023-02-28T06:46:42;13.40;;;8.17;;
74674;SDS011;63200;48.810;12.352;2023-02-28T06:49:09;16.00;;;8.27;;
74674;SDS011;63200;48.810;12.352;2023-02-28T06:51:36;19.00;;;9.17;;
74674;SDS011;63200;48.810;12.352;2023-02-28T06:54:02;22.27;;;10.70;;
74674;SDS011;63200;48.810;12.352;2023-02-28T06:56:28;23.20;;;10.55;;
74674;SDS011;63200;48.810;12.352;2023-02-28T06:58:53;24.30;;;10.80;;
74674;SDS011;63200;48.810;12.352;2023-02-28T07:01:19;18.10;;;9.82;;
74674;SDS011;63200;48.810;12.352;2023-02-28T07:03:45;19.15;;;9.25;;
74674;SDS011;63200;48.810;12.352;2023-02-28T07:06:11;20.38;;;8.98;;
74674;SDS011;63200;48.810;12.352;2023-02-28T07:08:36;19.80;;;8.13;;
74674;SDS011;63200;48.810;12.352;2023-02-28T07:11:02;35.38;;;16.00;;
74674;SDS011;63200;48.810;12.352;2023-02-28T07:13:28;38.28;;;17.92;;
74674;SDS011;63200;48.810;12.352;2023-02-28T07:15:57;22.17;;;11.98;;
74674;SDS011;63200;48.810;12.352;2023-02-28T07:18:24;23.77;;;13.07;;
74674;SDS011;63200;48.810;12.352;2023-02-28T07:20:49;23.05;;;13.40;;
74674;SDS011;63200;48.810;12.352;2023-02-28T07:23:15;19.52;;;11.30;;
74674;SDS011;63200;48.810;12.352;2023-02-28T07:25:40;14.90;;;9.10;;
74674;SDS011;63200;48.810;12.352;2023-02-28T07:28:06;19.73;;;11.65;;
74674;SDS011;63200;48.810;12.352;2023-02-28T07:30:31;22.02;;;11.95;;
74674;SDS011;63200;48.810;12.352;2023-02-28T07:32:56;42.00;;;19.75;;
74674;SDS011;63200;48.810;12.352;2023-02-28T07:35:22;16.77;;;10.75;;
74674;SDS011;63200;48.810;12.352;2023-02-28T07:37:48;17.95;;;10.35;;
74674;SDS011;63200;48.810;12.352;2023-02-28T07:40:13;30.23;;;14.75;;
74674;SDS011;63200;48.810;12.352;2023-02-28T07:42:42;35.60;;;17.00;;
74674;SDS011;63200;48.810;12.352;2023-02-28T07:45:07;28.25;;;13.98;;
74674;SDS011;63200;48.810;12.352;2023-02-28T07:47:36;11.05;;;7.43;;
74674;SDS011;63200;48.810;12.352;2023-02-28T07:50:05;26.25;;;13.57;;
74674;SDS011;63200;48.810;12.352;2023-02-28T07:52:31;11.43;;;7.38;;
74674;SDS011;63200;48.810;12.352;2023-02-28T07:54:57;10.18;;;6.20;;
74674;SDS011;63200;48.810;12.352;2023-02-28T07:57:23;12.65;;;6.65;;
74674;SDS011;63200;48.810;12.352;2023-02-28T07:59:48;11.13;;;7.22;;
74674;SDS011;63200;48.810;12.352;2023-02-28T08:02:14;13.73;;;7.25;;
74674;SDS011;63200;48.810;12.352;2023-02-28T08:04:41;10.70;;;6.35;;
74674;SDS011;63200;48.810;12.352;2023-02-28T08:07:07;12.13;;;7.32;;
74674;SDS011;63200;48.810;12.352;2023-02-28T08:09:33;14.77;;;7.30;;
74674;SDS011;63200;48.810;12.352;2023-02-28T08:11:59;10.27;;;6.07;;
74674;SDS011;63200;48.810;12.352;2023-02-28T08:14:24;9.80;;;6.73;;
74674;SDS011;63200;48.810;12.352;2023-02-28T08:16:49;9.13;;;4.93;;
74674;SDS011;63200;48.810;12.352;2023-02-28T08:19:14;10.00;;;6.97;;
74674;SDS011;63200;48.810;12.352;2023-02-28T08:21:40;15.30;;;7.77;;
74674;SDS011;63200;48.810;12.352;2023-02-28T08:24:05;12.37;;;6.83;;
74674;SDS011;63200;48.810;12.352;2023-02-28T08:26:31;13.40;;;7.07;;
74674;SDS011;63200;48.810;12.352;2023-02-28T08:28:57;14.73;;;6.00;;
74674;SDS011;63200;48.810;12.352;2023-02-28T08:31:23;12.23;;;6.50;;
74674;SDS011;63200;48.810;12.352;2023-02-28T08:33:48;12.50;;;6.10;;
74674;SDS011;63200;48.810;12.352;2023-02-28T08:36:16;14.33;;;6.00;;
74674;SDS011;63200;48.810;12.352;2023-02-28T08:38:42;9.73;;;6.70;;
74674;SDS011;63200;48.810;12.352;2023-02-28T08:41:08;10.35;;;5.20;;
74674;SDS011;63200;48.810;12.352;2023-02-28T08:43:35;11.67;;;5.87;;
74674;SDS011;63200;48.810;12.352;2023-02-28T08:46:01;11.47;;;5.50;;
74674;SDS011;63200;48.810;12.352;2023-02-28T08:48:27;10.90;;;6.33;;
74674;SDS011;63200;48.810;12.352;2023-02-28T08:50:57;7.57;;;6.17;;
74674;SDS011;63200;48.810;12.352;2023-02-28T08:53:24;9.53;;;6.40;;
74674;SDS011;63200;48.810;12.352;2023-02-28T08:56:01;15.17;;;6.37;;
74674;SDS011;63200;48.810;12.352;2023-02-28T08:58:34;10.47;;;6.57;;
74674;SDS011;63200;48.810;12.352;2023-02-28T09:01:00;6.27;;;4.63;;
74674;SDS011;63200;48.810;12.352;2023-02-28T09:03:25;8.97;;;6.50;;
74674;SDS011;63200;48.810;12.352;2023-02-28T09:05:55;12.90;;;6.97;;
74674;SDS011;63200;48.810;12.352;2023-02-28T09:08:23;8.90;;;6.87;;
74674;SDS011;63200;48.810;12.352;2023-02-28T09:10:49;9.90;;;6.27;;
74674;SDS011;63200;48.810;12.352;2023-02-28T09:13:16;12.47;;;7.50;;
74674;SDS011;63200;48.810;12.352;2023-02-28T09:15:42;14.70;;;8.80;;
74674;SDS011;63200;48.810;12.352;2023-02-28T09:18:07;12.80;;;7.07;;
74674;SDS011;63200;48.810;12.352;2023-02-28T09:20:32;13.93;;;8.47;;
74674;SDS011;63200;48.810;12.352;2023-02-28T09:22:58;11.80;;;7.43;;
74674;SDS011;63200;48.810;12.352;2023-02-28T09:25:23;18.13;;;7.70;;
74674;SDS011;63200;48.810;12.352;2023-02-28T09:27:48;13.97;;;7.70;;
74674;SDS011;63200;48.810;12.352;2023-02-28T09:30:14;14.93;;;7.53;;
74674;SDS011;63200;48.810;12.352;2023-02-28T09:32:39;14.90;;;7.67;;
74674;SDS011;63200;48.810;12.352;2023-02-28T09:35:05;12.20;;;6.32;;
74674;SDS011;63200;48.810;12.352;2023-02-28T09:37:31;10.63;;;6.03;;
74674;SDS011;63200;48.810;12.352;2023-02-28T09:39:56;10.48;;;6.53;;
74674;SDS011;63200;48.810;12.352;2023-02-28T09:42:25;11.63;;;7.75;;
74674;SDS011;63200;48.810;12.352;2023-02-28T09:44:55;13.85;;;6.97;;
74674;SDS011;63200;48.810;12.352;2023-02-28T09:47:40;9.60;;;6.87;;
74674;SDS011;63200;48.810;12.352;2023-02-28T09:50:17;10.20;;;5.77;;
74674;SDS011;63200;48.810;12.352;2023-02-28T09:52:51;11.75;;;7.55;;
74674;SDS011;63200;48.810;12.352;2023-02-28T09:57:44;15.30;;;7.50;;
74674;SDS011;63200;48.810;12.352;2023-02-28T10:00:21;10.77;;;7.13;;
74674;SDS011;63200;48.810;12.352;2023-02-28T10:02:58;11.13;;;6.60;;
74674;SDS011;63200;48.810;12.352;2023-02-28T10:05:47;10.47;;;6.50;;
74674;SDS011;63200;48.810;12.352;2023-02-28T10:08:19;12.70;;;6.83;;
74674;SDS011;63200;48.810;12.352;2023-02-28T10:11:02;7.57;;;5.70;;
74674;SDS011;63200;48.810;12.352;2023-02-28T10:16:07;9.27;;;7.20;;
74674;SDS011;63200;48.810;12.352;2023-02-28T10:18:46;9.33;;;5.90;;
74674;SDS011;63200;48.810;12.352;2023-02-28T10:21:19;9.20;;;5.97;;
74674;SDS011;63200;48.810;12.352;2023-02-28T10:23:50;9.93;;;6.63;;
74674;SDS011;63200;48.810;12.352;2023-02-28T10:26:21;14.73;;;7.20;;
74674;SDS011;63200;48.810;12.352;2023-02-28T10:28:48;11.70;;;7.07;;
74674;SDS011;63200;48.810;12.352;2023-02-28T10:31:19;11.30;;;5.70;;
74674;SDS011;63200;48.810;12.352;2023-02-28T10:33:45;26.83;;;11.47;;
74674;SDS011;63200;48.810;12.352;2023-02-28T10:36:15;9.55;;;6.43;;
74674;SDS011;63200;48.810;12.352;2023-02-28T10:38:43;7.87;;;5.97;;
74674;SDS011;63200;48.810;12.352;2023-02-28T10:41:43;9.33;;;6.27;;
74674;SDS011;63200;48.810;12.352;2023-02-28T10:44:39;10.13;;;5.70;;
74674;SDS011;63200;48.810;12.352;2023-02-28T10:46:58;8.80;;;6.90;;
74674;SDS011;63200;48.810;12.352;2023-02-28T10:49:27;7.80;;;6.13;;
74674;SDS011;63200;48.810;12.352;2023-02-28T10:51:57;8.77;;;6.17;;
74674;SDS011;63200;48.810;12.352;2023-02-28T10:54:27;8.97;;;6.40;;
74674;SDS011;63200;48.810;12.352;2023-02-28T10:59:33;9.17;;;6.43;;
74674;SDS011;63200;48.810;12.352;2023-02-28T11:01:59;10.23;;;5.77;;
74674;SDS011;63200;48.810;12.352;2023-02-28T11:07:16;9.88;;;6.53;;
74674;SDS011;63200;48.810;12.352;2023-02-28T11:09:48;9.60;;;6.63;;
74674;SDS011;63200;48.810;12.352;2023-02-28T11:12:21;10.17;;;6.87;;
74674;SDS011;63200;48.810;12.352;2023-02-28T11:14:54;12.60;;;6.63;;
74674;SDS011;63200;48.810;12.352;2023-02-28T11:17:27;12.75;;;7.05;;
74674;SDS011;63200;48.810;12.352;2023-02-28T11:19:59;7.63;;;6.00;;
74674;SDS011;63200;48.810;12.352;2023-02-28T11:22:32;10.25;;;6.57;;
74674;SDS011;63200;48.810;12.352;2023-02-28T11:25:06;8.50;;;6.27;;
74674;SDS011;63200;48.810;12.352;2023-02-28T11:27:48;9.70;;;6.27;;
74674;SDS011;63200;48.810;12.352;2023-02-28T11:33:21;8.13;;;7.20;;
74674;SDS011;63200;48.810;12.352;2023-02-28T11:36:09;10.68;;;6.20;;
74674;SDS011;63200;48.810;12.352;2023-02-28T11:38:37;9.40;;;6.17;;
74674;SDS011;63200;48.810;12.352;2023-02-28T11:41:05;11.37;;;6.90;;
74674;SDS011;63200;48.810;12.352;2023-02-28T11:43:51;10.05;;;7.00;;
74674;SDS011;63200;48.810;12.352;2023-02-28T11:46:29;10.48;;;5.82;;
74674;SDS011;63200;48.810;12.352;2023-02-28T11:49:12;19.23;;;5.82;;
74674;SDS011;63200;48.810;12.352;2023-02-28T11:51:57;21.23;;;7.70;;
74674;SDS011;63200;48.810;12.352;2023-02-28T11:56:55;10.53;;;7.00;;
74674;SDS011;63200;48.810;12.352;2023-02-28T11:59:44;12.00;;;6.22;;
74674;SDS011;63200;48.810;12.352;2023-02-28T12:02:31;9.10;;;7.13;;
74674;SDS011;63200;48.810;12.352;2023-02-28T12:27:11;12.15;;;7.03;;
74674;SDS011;63200;48.810;12.352;2023-02-28T12:30:27;10.52;;;6.82;;
74674;SDS011;63200;48.810;12.352;2023-02-28T12:32:39;11.25;;;7.68;;
74674;SDS011;63200;48.810;12.352;2023-02-28T12:35:14;10.15;;;6.10;;
74674;SDS011;63200;48.810;12.352;2023-02-28T12:40:20;9.57;;;7.60;;
74674;SDS011;63200;48.810;12.352;2023-02-28T12:42:57;9.43;;;5.80;;
74674;SDS011;63200;48.810;12.352;2023-02-28T12:45:46;11.13;;;5.60;;
74674;SDS011;63200;48.810;12.352;2023-02-28T12:48:18;11.55;;;6.07;;
74674;SDS011;63200;48.810;12.352;2023-02-28T12:50:49;9.32;;;5.93;;
74674;SDS011;63200;48.810;12.352;2023-02-28T12:53:22;8.27;;;7.22;;
74674;SDS011;63200;48.810;12.352;2023-02-28T12:56:00;14.55;;;6.50;;
74674;SDS011;63200;48.810;12.352;2023-02-28T12:58:48;10.95;;;7.25;;
74674;SDS011;63200;48.810;12.352;2023-02-28T13:09:24;12.73;;;7.95;;
74674;SDS011;63200;48.810;12.352;2023-02-28T13:11:53;10.18;;;7.25;;
74674;SDS011;63200;48.810;12.352;2023-02-28T13:19:36;10.95;;;6.28;;
74674;SDS011;63200;48.810;12.352;2023-02-28T13:22:04;9.07;;;6.43;;
74674;SDS011;63200;48.810;12.352;2023-02-28T13:29:28;11.48;;;7.15;;
74674;SDS011;63200;48.810;12.352;2023-02-28T13:45:20;10.13;;;7.43;;
74674;SDS011;63200;48.810;12.352;2023-02-28T13:47:59;11.07;;;5.90;;
74674;SDS011;63200;48.810;12.352;2023-02-28T13:52:57;10.70;;;6.32;;
74674;SDS011;63200;48.810;12.352;2023-02-28T14:11:36;18.17;;;8.52;;
74674;SDS011;63200;48.810;12.352;2023-02-28T14:14:05;23.50;;;10.77;;
74674;SDS011;63200;48.810;12.352;2023-02-28T14:16:36;10.60;;;7.88;;
74674;SDS011;63200;48.810;12.352;2023-02-28T14:19:12;11.35;;;7.88;;
74674;SDS011;63200;48.810;12.352;2023-02-28T14:22:25;10.38;;;8.68;;
74674;SDS011;63200;48.810;12.352;2023-02-28T14:38:16;14.57;;;8.98;;
74674;SDS011;63200;48.810;12.352;2023-02-28T14:40:46;15.60;;;8.73;;
74674;SDS011;63200;48.810;12.352;2023-02-28T14:43:22;17.42;;;9.50;;
74674;SDS011;63200;48.810;12.352;2023-02-28T14:45:51;13.32;;;9.05;;
74674;SDS011;63200;48.810;12.352;2023-02-28T14:48:20;14.00;;;9.15;;
74674;SDS011;63200;48.810;12.352;2023-02-28T14:50:51;13.95;;;9.07;;
74674;SDS011;63200;48.810;12.352;2023-02-28T14:53:20;17.38;;;9.60;;
74674;SDS011;63200;48.810;12.352;2023-02-28T14:55:49;14.55;;;8.98;;
74674;SDS011;63200;48.810;12.352;2023-02-28T14:58:30;15.55;;;9.32;;
74674;SDS011;63200;48.810;12.352;2023-02-28T15:00:58;14.73;;;8.77;;
74674;SDS011;63200;48.810;12.352;2023-02-28T15:03:38;14.85;;;9.15;;
74674;SDS011;63200;48.810;12.352;2023-02-28T15:06:17;13.38;;;7.50;;
74674;SDS011;63200;48.810;12.352;2023-02-28T15:08:43;14.27;;;8.30;;
74674;SDS011;63200;48.810;12.352;2023-02-28T15:11:19;13.10;;;6.93;;
74674;SDS011;63200;48.810;12.352;2023-02-28T15:13:48;14.77;;;8.02;;
74674;SDS011;63200;48.810;12.352;2023-02-28T15:16:22;15.80;;;8.52;;
74674;SDS011;63200;48.810;12.352;2023-02-28T15:18:52;15.75;;;9.30;;
74674;SDS011;63200;48.810;12.352;2023-02-28T15:21:22;15.90;;;9.85;;
74674;SDS011;63200;48.810;12.352;2023-02-28T15:24:02;15.63;;;8.70;;
74674;SDS011;63200;48.810;12.352;2023-02-28T15:26:36;22.38;;;8.80;;
74674;SDS011;63200;48.810;12.352;2023-02-28T15:29:06;15.15;;;7.65;;
74674;SDS011;63200;48.810;12.352;2023-02-28T15:32:16;12.38;;;7.68;;
74674;SDS011;63200;48.810;12.352;2023-02-28T15:34:34;13.73;;;7.57;;
74674;SDS011;63200;48.810;12.352;2023-02-28T15:37:06;21.63;;;10.23;;
74674;SDS011;63200;48.810;12.352;2023-02-28T15:39:53;20.25;;;9.98;;
74674;SDS011;63200;48.810;12.352;2023-02-28T15:42:21;21.88;;;9.95;;
74674;SDS011;63200;48.810;12.352;2023-02-28T15:44:48;16.70;;;9.10;;
74674;SDS011;63200;48.810;12.352;2023-02-28T15:49:49;19.50;;;9.95;;
74674;SDS011;63200;48.810;12.352;2023-02-28T15:52:19;28.23;;;9.63;;
74674;SDS011;63200;48.810;12.352;2023-02-28T15:54:49;20.30;;;10.27;;
74674;SDS011;63200;48.810;12.352;2023-02-28T15:57:17;17.00;;;9.48;;
74674;SDS011;63200;48.810;12.352;2023-02-28T15:59:57;16.27;;;9.18;;
74674;SDS011;63200;48.810;12.352;2023-02-28T16:02:35;17.58;;;9.57;;
74674;SDS011;63200;48.810;12.352;2023-02-28T16:07:33;15.02;;;9.38;;
74674;SDS011;63200;48.810;12.352;2023-02-28T16:10:00;17.92;;;9.27;;
74674;SDS011;63200;48.810;12.352;2023-02-28T16:12:29;19.00;;;9.25;;
74674;SDS011;63200;48.810;12.352;2023-02-28T16:14:57;18.05;;;10.07;;
74674;SDS011;63200;48.810;12.352;2023-02-28T16:17:28;18.08;;;9.73;;
74674;SDS011;63200;48.810;12.352;2023-02-28T16:19:55;22.13;;;10.77;;
74674;SDS011;63200;48.810;12.352;2023-02-28T16:22:21;17.90;;;9.57;;
74674;SDS011;63200;48.810;12.352;2023-02-28T16:24:46;22.67;;;10.77;;
74674;SDS011;63200;48.810;12.352;2023-02-28T16:27:20;16.70;;;11.00;;
74674;SDS011;63200;48.810;12.352;2023-02-28T16:29:51;22.35;;;10.70;;
74674;SDS011;63200;48.810;12.352;2023-02-28T16:32:17;19.80;;;10.30;;
74674;SDS011;63200;48.810;12.352;2023-02-28T16:34:43;26.65;;;10.77;;
74674;SDS011;63200;48.810;12.352;2023-02-28T16:37:15;23.95;;;12.05;;
74674;SDS011;63200;48.810;12.352;2023-02-28T16:39:42;25.25;;;12.02;;
74674;SDS011;63200;48.810;12.352;2023-02-28T16:42:11;24.77;;;12.35;;
74674;SDS011;63200;48.810;12.352;2023-02-28T16:44:47;28.40;;;14.75;;
74674;SDS011;63200;48.810;12.352;2023-02-28T16:47:13;25.27;;;13.48;;
74674;SDS011;63200;48.810;12.352;2023-02-28T16:49:38;24.23;;;13.05;;
74674;SDS011;63200;48.810;12.352;2023-02-28T16:52:06;24.00;;;11.65;;
74674;SDS011;63200;48.810;12.352;2023-02-28T16:54:32;34.47;;;15.00;;
74674;SDS011;63200;48.810;12.352;2023-02-28T16:56:57;29.27;;;13.70;;
74674;SDS011;63200;48.810;12.352;2023-02-28T16:59:23;31.48;;;14.48;;
74674;SDS011;63200;48.810;12.352;2023-02-28T17:01:51;30.77;;;14.57;;